Airfield :
LOGIN :

Register | Disclaimer

   EN    FR    IT 

 










Legend :    VFR   Marginal VFR   IFR   Intensive IFR   Very Intensive IFR
Visi :
Ceiling :
>= 8 km
>= 3000ft
5 to 8 km
1000 to 3000 ft
1500m to 5 km
500 to 1000 ft
800 to 1500m
200 to 500 ft
< 800m
< 200 ft
Symbols :   Thunderstorms  Fog  Heavy snow  Heavy precipitations  Wind > 20 kt
SIGMETs :     Misc.  Thunderstorms  Icing  Turbulence  Mountain Waves  Volcanic Ashes






- Airport Elevation : 614 ft
- IATA code : CRL


EBCI - Charleroi

CURRENT METAR :
  • 270720Z 16009KT 140V200 6000 -RADZ SCT005 BKN008 02/01 Q1000 TEMPO 4000 RADZ BKN004

EXPIRED METARs :
  • 270650Z 17009KT 6000 -RADZ SCT009 BKN035 02/01 Q1001 TEMPO 4000 RADZ BKN006
  • 270620Z 18008KT 150V210 9999 FEW009 02/00 Q1002 NOSIG
  • 270550Z 18008KT 9999 FEW009 02/00 Q1002 NOSIG
  • 270520Z 17008KT 9999 FEW008 02/00 Q1003 NOSIG
  • 270450Z 19007KT 9999 FEW008 SCT045 02/00 Q1004 NOSIG

TAF TAF EBCI
Valid from the 27 at 06:00 until the 28 at 12:00 UTC


270510Z 2706/2812 18008KT 8000 -RA SCT008 BKN012
BECMG 2706/2709 4000 -RASN BKN008
TEMPO 2708/2717 2000 SNRA BKN003
PROB40
TEMPO 2709/2716 0500 SN VV001
BECMG 2716/2719 30015G25KT 9999 NSW FEW012 SCT030
BECMG 2721/2723 26008KT
BECMG 2810/2812 18012G22KT



MET'MAP, your aeronautical weather chart ! - Copyright ORBIFLY December 2007 - Disclaimer

ORBIFLY MET'MAP TEAM :

Programming & Development : Alexandra Zaïnal
Concept & original design : Baudouin d'Aumeries
Assistance for programming : Marc-Olivier Méhu
Technical & hardware support : Manuel Goepfert

Contact : metmap@orbifly.com




SOURCES & CREDITS :

   NOAA